Time;durP1;ratioP1;P1;durP2;ratioP2;P2;SDS_P1;SDS_P2;PMS_P1;PMS_P2;Temp;Humidity;BMP_temperature;BMP_pressure;BME280_temperature;BME280_humidity;BME280_pressure;Samples;Min_cycle;Max_cycle;Signal;HPM_P1;HPM_P2
2022/07/12 00:00:27;;;;;;;4.50;2.90;;;;;;;16.88;100.00;102326.03;5230244;28;20111;-78
2022/07/12 00:02:58;;;;;;;3.87;2.93;;;;;;;16.87;100.00;102335.78;5223902;28;20029;-78
2022/07/12 00:05:30;;;;;;;8.33;3.30;;;;;;;16.73;100.00;102325.19;5236493;28;20123;-76
2022/07/12 00:08:01;;;;;;;7.57;3.17;;;;;;;16.64;100.00;102322.19;5220109;28;20083;-76
2022/07/12 00:10:32;;;;;;;4.67;2.87;;;;;;;16.59;100.00;102305.75;5211577;28;20033;-77
2022/07/12 00:13:04;;;;;;;4.73;3.30;;;;;;;16.63;100.00;102323.16;5233264;28;20420;-77
2022/07/12 00:15:35;;;;;;;3.57;2.80;;;;;;;16.72;100.00;102310.28;5219828;28;20053;-77
2022/07/12 00:18:07;;;;;;;4.20;3.30;;;;;;;16.56;100.00;102311.25;5222757;28;20055;-77
2022/07/12 00:20:38;;;;;;;5.90;3.97;;;;;;;16.52;100.00;102313.22;5226234;28;20661;-76
2022/07/12 00:23:09;;;;;;;5.30;3.20;;;;;;;16.66;100.00;102309.72;5230688;28;20132;-77
2022/07/12 00:25:40;;;;;;;6.73;3.43;;;;;;;16.59;100.00;102307.53;5233386;28;20044;-77
2022/07/12 00:28:12;;;;;;;6.63;3.77;;;;;;;16.55;100.00;102310.38;5233489;28;20029;-76
2022/07/12 00:30:43;;;;;;;4.27;3.20;;;;;;;16.52;100.00;102313.22;5217848;28;20052;-76
2022/07/12 00:33:14;;;;;;;4.87;3.70;;;;;;;16.45;100.00;102310.13;5202044;28;20118;-76
2022/07/12 00:35:45;;;;;;;5.40;3.37;;;;;;;16.44;100.00;102303.13;5231470;28;20044;-76
2022/07/12 00:38:17;;;;;;;7.00;3.20;;;;;;;16.53;100.00;102311.44;5217093;28;20093;-76
2022/07/12 00:40:49;;;;;;;7.67;3.93;;;;;;;16.45;100.00;102315.41;5222663;28;20041;-76
2022/07/12 00:43:20;;;;;;;5.00;3.23;;;;;;;16.26;100.00;102312.19;5218593;28;20113;-76
2022/07/12 00:45:52;;;;;;;4.40;2.93;;;;;;;16.24;100.00;102308.78;5222959;28;20045;-75
2022/07/12 00:48:24;;;;;;;4.00;2.97;;;;;;;16.64;100.00;102311.59;5219007;28;20045;-74
2022/07/12 00:50:55;;;;;;;4.03;3.13;;;;;;;16.52;100.00;102315.00;5215025;28;20037;-76
2022/07/12 00:53:27;;;;;;;5.27;3.27;;;;;;;16.30;100.00;102306.59;5234981;28;20045;-75
2022/07/12 00:55:59;;;;;;;3.57;2.70;;;;;;;16.47;100.00;102304.72;5204776;28;20037;-76
2022/07/12 00:58:31;;;;;;;7.70;3.17;;;;;;;16.60;100.00;102296.88;5231126;28;20035;-75
2022/07/12 01:01:02;;;;;;;8.33;3.27;;;;;;;16.55;100.00;102294.53;5233389;28;20131;-75
2022/07/12 01:03:34;;;;;;;6.70;3.57;;;;;;;16.27;100.00;102301.50;5224778;28;20033;-75
2022/07/12 01:06:07;;;;;;;4.93;3.23;;;;;;;16.42;100.00;102307.63;5265992;22;20049;-76
2022/07/12 01:08:39;;;;;;;6.17;3.87;;;;;;;16.35;100.00;102311.63;5261512;28;20037;-75
2022/07/12 01:11:10;;;;;;;4.20;2.93;;;;;;;16.59;100.00;102311.06;5269732;28;20040;-76
2022/07/12 01:13:42;;;;;;;4.50;2.90;;;;;;;16.45;100.00;102301.31;5273136;28;20812;-75
2022/07/12 01:16:14;;;;;;;5.23;3.60;;;;;;;16.24;100.00;102308.78;5274409;28;20044;-75
2022/07/12 01:18:45;;;;;;;8.17;3.80;;;;;;;16.09;100.00;102309.59;5265878;28;20036;-75
2022/07/12 01:21:19;;;;;;;4.33;3.30;;;;;;;16.15;100.00;102315.47;5267848;28;20050;-74
2022/07/12 01:23:51;;;;;;;;;;;;;;;16.56;100.00;102313.88;5259376;28;20051;-75
2022/07/12 01:26:22;;;;;;;4.33;3.53;;;;;;;16.11;100.00;102312.16;5258919;28;19916;-76
2022/07/12 01:28:55;;;;;;;6.07;3.77;;;;;;;16.15;100.00;102318.09;5271626;28;20048;-75
2022/07/12 01:31:27;;;;;;;6.17;3.50;;;;;;;15.92;100.00;102320.28;5259719;28;20068;-72
2022/07/12 01:33:59;;;;;;;5.47;3.43;;;;;;;15.93;100.00;102314.09;5258747;28;20584;-75
2022/07/12 01:36:30;;;;;;;5.37;3.27;;;;;;;15.99;100.00;102328.72;5272926;28;20028;-75
2022/07/12 01:39:04;;;;;;;6.20;3.17;;;;;;;15.83;100.00;102300.59;5277099;28;20508;-75
2022/07/12 01:41:36;;;;;;;4.63;3.97;;;;;;;15.97;100.00;102328.81;5274468;28;20051;-76
2022/07/12 01:44:07;;;;;;;8.33;3.97;;;;;;;15.83;100.00;102327.00;5274574;28;20131;-75
2022/07/12 01:46:38;;;;;;;6.00;3.90;;;;;;;15.83;100.00;102327.81;5258797;28;20156;-76
2022/07/12 01:49:09;;;;;;;6.57;4.43;;;;;;;15.62;100.00;102300.03;5261861;28;20506;-75
2022/07/12 01:51:41;;;;;;;7.00;4.67;;;;;;;15.64;100.00;102317.50;5267279;28;21469;-75
2022/07/12 01:54:12;;;;;;;7.93;5.03;;;;;;;15.69;100.00;102322.53;5262851;28;20029;-75
2022/07/12 01:56:43;;;;;;;8.67;5.47;;;;;;;15.67;100.00;102314.69;5266571;28;20028;-76
2022/07/12 01:59:14;;;;;;;8.03;4.73;;;;;;;15.57;100.00;102319.63;5282346;28;20117;-75
2022/07/12 02:01:47;;;;;;;5.27;3.73;;;;;;;15.59;100.00;102316.91;5273471;28;20047;-75
2022/07/12 02:04:18;;;;;;;7.33;4.57;;;;;;;15.52;100.00;102312.91;5271868;28;20105;-76
2022/07/12 02:06:50;;;;;;;7.13;3.30;;;;;;;15.40;100.00;102309.19;5273324;28;20032;-76
2022/07/12 02:09:21;;;;;;;6.23;3.57;;;;;;;15.38;100.00;102319.00;5274443;28;20044;-75
2022/07/12 02:11:53;;;;;;;4.30;3.60;;;;;;;15.43;100.00;102322.25;5263567;28;20147;-75
2022/07/12 02:14:24;;;;;;;5.13;3.33;;;;;;;15.43;100.00;102307.22;5266700;28;20065;-76
2022/07/12 02:16:56;;;;;;;4.90;3.33;;;;;;;15.37;100.00;102328.72;5274383;28;20059;-76
2022/07/12 02:19:27;;;;;;;5.50;3.83;;;;;;;15.28;100.00;102313.38;5278041;28;20055;-76
2022/07/12 02:21:58;;;;;;;10.07;4.53;;;;;;;15.28;100.00;102305.47;5271693;28;20051;-76
2022/07/12 02:24:29;;;;;;;5.80;3.90;;;;;;;15.32;100.00;102309.66;5262507;28;20037;-76
2022/07/12 02:27:01;;;;;;;4.30;3.27;;;;;;;15.13;100.00;102302.78;5269723;28;20097;-75
2022/07/12 02:29:32;;;;;;;5.60;3.80;;;;;;;15.26;100.00;102307.34;5261715;28;20247;-77
2022/07/12 02:32:04;;;;;;;5.80;4.90;;;;;;;15.27;100.00;102311.69;5265087;28;20055;-75
2022/07/12 02:34:35;;;;;;;6.60;3.60;;;;;;;15.19;100.00;102310.34;5261870;28;20025;-76
2022/07/12 02:37:06;;;;;;;5.50;3.37;;;;;;;15.17;100.00;102317.47;5276513;28;20058;-76
2022/07/12 02:39:37;;;;;;;8.30;3.67;;;;;;;15.19;100.00;102302.41;5286395;28;20036;-76
2022/07/12 02:42:09;;;;;;;3.83;3.40;;;;;;;15.06;100.00;102317.25;5275958;28;20035;-75
2022/07/12 02:44:40;;;;;;;4.07;3.23;;;;;;;15.16;100.00;102309.66;5293838;28;20032;-75
2022/07/12 02:47:11;;;;;;;4.80;3.57;;;;;;;15.18;100.00;102307.78;5282824;28;20038;-76
2022/07/12 02:49:42;;;;;;;4.93;3.27;;;;;;;15.17;100.00;102317.47;5292980;28;20039;-75
2022/07/12 02:52:14;;;;;;;5.03;3.60;;;;;;;14.98;100.00;102305.31;5290264;28;20089;-75
2022/07/12 02:54:45;;;;;;;6.37;3.67;;;;;;;14.99;100.00;102314.94;5292148;28;20020;-76
2022/07/12 02:57:16;;;;;;;5.67;3.47;;;;;;;15.04;100.00;102311.19;5291464;28;20039;-75
2022/07/12 02:59:47;;;;;;;4.50;3.53;;;;;;;14.98;100.00;102312.38;5296650;28;20036;-76
2022/07/12 03:02:19;;;;;;;5.43;3.30;;;;;;;14.92;100.00;102312.72;5287272;28;20032;-76
2022/07/12 03:04:50;;;;;;;4.07;3.67;;;;;;;14.93;100.00;102307.34;5272238;28;20057;-75
2022/07/12 03:07:22;;;;;;;3.87;3.20;;;;;;;14.75;100.00;102311.81;5270859;28;20032;-76
2022/07/12 03:09:53;;;;;;;4.27;3.87;;;;;;;14.80;100.00;102308.94;5285922;28;20047;-75
2022/07/12 03:12:24;;;;;;;4.00;3.33;;;;;;;14.93;100.00;102307.34;5292942;28;20429;-76
2022/07/12 03:14:56;;;;;;;4.90;3.63;;;;;;;14.77;100.00;102304.66;5271840;28;20406;-74
2022/07/12 03:17:27;;;;;;;6.40;3.40;;;;;;;14.86;100.00;102306.00;5292564;28;20359;-75
2022/07/12 03:19:58;;;;;;;4.60;3.80;;;;;;;14.74;100.00;102305.72;5291604;28;20145;-75
2022/07/12 03:22:30;;;;;;;5.93;3.90;;;;;;;14.70;100.00;102303.28;5277793;28;20043;-75
2022/07/12 03:25:01;;;;;;;4.40;3.77;;;;;;;14.74;100.00;102295.16;5274175;28;20032;-76
2022/07/12 03:27:32;;;;;;;6.73;4.10;;;;;;;14.59;100.00;102304.72;5284122;28;20028;-76
2022/07/12 03:30:04;;;;;;;4.90;4.40;;;;;;;14.69;100.00;102299.84;5289226;28;20038;-76
2022/07/12 03:32:36;;;;;;;5.03;4.13;;;;;;;14.75;100.00;102307.41;5292277;28;20116;-76
2022/07/12 03:35:08;;;;;;;4.93;4.37;;;;;;;14.75;100.00;102307.41;5291059;28;20016;-76
2022/07/12 03:37:51;;;;;;;5.00;4.10;;;;;;;14.88;100.00;102298.84;5291471;28;20032;-76
2022/07/12 03:40:22;;;;;;;5.80;4.13;;;;;;;14.76;100.00;102309.13;5271137;28;20032;-76
2022/07/12 03:42:53;;;;;;;7.87;4.70;;;;;;;14.71;100.00;102305.03;5281316;28;20032;-76
2022/07/12 03:45:25;;;;;;;4.70;4.20;;;;;;;14.90;100.00;102318.09;5277612;28;20042;-76
2022/07/12 03:47:56;;;;;;;5.33;4.10;;;;;;;14.86;100.00;102313.91;5288626;28;20028;-76
2022/07/12 03:50:27;;;;;;;5.17;4.33;;;;;;;14.83;100.00;102314.06;5291695;28;20012;-76
2022/07/12 03:52:59;;;;;;;5.63;3.83;;;;;;;14.69;100.00;102313.00;5290666;28;20028;-76
2022/07/12 03:55:30;;;;;;;5.17;4.50;;;;;;;14.75;100.00;102317.94;5290516;28;20041;-75
2022/07/12 03:58:01;;;;;;;4.77;4.27;;;;;;;14.76;100.00;102317.03;5291120;28;20032;-76
2022/07/12 04:00:32;;;;;;;7.43;5.03;;;;;;;14.71;100.00;102310.28;5275571;28;20043;-75
2022/07/12 04:03:04;;;;;;;5.63;4.50;;;;;;;14.61;100.00;102309.91;5279710;28;20482;-75
2022/07/12 04:05:35;;;;;;;5.60;5.00;;;;;;;14.54;100.00;102290.13;5281318;28;20059;-76
2022/07/12 04:08:06;;;;;;;6.97;4.93;;;;;;;14.61;100.00;102307.28;5289445;28;20038;-76
2022/07/12 04:10:37;;;;;;;6.40;4.70;;;;;;;14.58;100.00;102289.84;5295347;28;20031;-75
2022/07/12 04:13:09;;;;;;;8.90;5.50;;;;;;;14.61;100.00;102300.22;5290971;28;20102;-76
2022/07/12 04:15:40;;;;;;;5.40;4.90;;;;;;;14.68;100.00;102303.38;5289731;28;20478;-76
2022/07/12 04:18:11;;;;;;;7.50;5.13;;;;;;;14.69;100.00;102299.84;5291235;28;20032;-75
2022/07/12 04:20:42;;;;;;;6.33;5.10;;;;;;;14.82;100.00;102294.75;5290936;28;20020;-76
2022/07/12 04:23:14;;;;;;;7.97;5.03;;;;;;;14.94;100.00;102316.97;5290686;28;20032;-75
2022/07/12 04:25:45;;;;;;;8.03;5.43;;;;;;;14.84;100.00;102315.75;5290583;28;20810;-76
2022/07/12 04:28:16;;;;;;;7.17;5.63;;;;;;;14.80;100.00;102314.22;5289779;28;20042;-76
2022/07/12 04:30:48;;;;;;;9.37;6.00;;;;;;;14.80;100.00;102312.41;5291831;28;20035;-75
2022/07/12 04:33:20;;;;;;;7.03;6.33;;;;;;;14.88;100.00;102312.91;5283103;28;20035;-76
2022/07/12 04:35:51;;;;;;;7.90;7.10;;;;;;;15.00;100.00;102311.38;5285244;28;20028;-75
2022/07/12 04:38:22;;;;;;;6.77;6.17;;;;;;;14.96;100.00;102320.38;5287956;28;20371;-76
2022/07/12 04:40:53;;;;;;;8.10;7.37;;;;;;;14.96;100.00;102315.09;5270904;28;20082;-76
2022/07/12 04:43:25;;;;;;;7.77;6.73;;;;;;;15.04;100.00;102325.25;5285076;28;20543;-76
2022/07/12 04:46:05;;;;;;;8.33;6.57;;;;;;;15.02;100.00;102321.84;5293940;28;20178;-75
2022/07/12 04:48:37;;;;;;;6.93;6.33;;;;;;;14.94;100.00;102322.25;5289944;28;20074;-76
2022/07/12 04:51:08;;;;;;;8.37;7.33;;;;;;;15.02;100.00;102323.63;5289724;28;20174;-76
2022/07/12 04:53:39;;;;;;;7.83;6.30;;;;;;;15.05;100.00;102328.72;5290574;28;20075;-76
2022/07/12 04:56:10;;;;;;;7.93;7.20;;;;;;;15.12;100.00;102327.44;5291279;28;20032;-77
2022/07/12 04:58:42;;;;;;;8.30;6.73;;;;;;;15.20;100.00;102327.84;5291380;28;20025;-76
2022/07/12 05:01:13;;;;;;;20.80;8.80;;;;;;;15.11;100.00;102309.91;5289547;28;20032;-76
2022/07/12 05:03:44;;;;;;;8.03;7.27;;;;;;;15.30;100.00;102322.94;5289595;28;20043;-76
2022/07/12 05:06:16;;;;;;;12.47;10.37;;;;;;;15.29;100.00;102323.03;5289403;28;20067;-75
2022/07/12 05:08:47;;;;;;;11.13;9.90;;;;;;;15.32;100.00;102331.63;5290656;28;20097;-76
2022/07/12 05:11:19;;;;;;;11.03;10.00;;;;;;;15.41;100.00;102329.38;5289324;28;20033;-76
2022/07/12 05:13:50;;;;;;;10.47;9.47;;;;;;;15.44;100.00;102340.63;5273211;28;20048;-76
2022/07/12 05:16:21;;;;;;;11.60;10.47;;;;;;;15.47;100.00;102340.44;5290357;28;20043;-76
2022/07/12 05:18:53;;;;;;;11.30;10.37;;;;;;;15.59;100.00;102338.88;5290369;28;20743;-76
2022/07/12 05:21:25;;;;;;;12.00;11.00;;;;;;;15.61;100.00;102338.78;5290206;28;20393;-75
2022/07/12 05:23:56;;;;;;;12.83;11.53;;;;;;;15.69;100.00;102339.19;5290741;28;20032;-73
2022/07/12 05:26:28;;;;;;;12.80;11.70;;;;;;;15.71;100.00;102347.88;5290028;28;20024;-76
2022/07/12 05:28:59;;;;;;;13.60;12.07;;;;;;;15.75;100.00;102353.84;5293319;28;20030;-76
2022/07/12 05:31:31;;;;;;;12.00;10.80;;;;;;;15.75;100.00;102353.00;5289900;28;20020;-76
2022/07/12 05:34:02;;;;;;;13.60;12.20;;;;;;;15.84;100.00;102355.97;5293008;28;20020;-75
2022/07/12 05:36:33;;;;;;;17.97;13.27;;;;;;;15.87;100.00;102365.50;5292908;28;20020;-76
2022/07/12 05:39:05;;;;;;;16.77;11.30;;;;;;;15.88;100.00;102361.94;5294619;28;20020;-76
2022/07/12 05:41:36;;;;;;;15.57;11.10;;;;;;;15.96;100.00;102370.25;5294314;28;20028;-77
2022/07/12 05:44:07;;;;;;;12.53;11.30;;;;;;;15.92;100.00;102370.50;5293357;28;20034;-76
2022/07/12 05:46:40;;;;;;;11.87;10.67;;;;;;;15.95;100.00;102379.09;5294461;28;20070;-73
2022/07/12 05:49:12;;;;;;;14.03;10.93;;;;;;;16.00;100.00;102383.31;5294104;28;20084;-77
2022/07/12 05:54:33;;;;;;;13.00;11.80;;;;;;;16.23;100.00;102386.38;5293156;28;20650;-78
2022/07/12 05:57:04;;;;;;;13.07;11.37;;;;;;;16.24;100.00;102390.72;5286498;28;20028;-77
2022/07/12 05:59:36;;;;;;;14.63;13.23;;;;;;;16.31;100.00;102395.56;5283957;28;20020;-78
2022/07/12 06:02:07;;;;;;;14.93;13.23;;;;;;;16.35;100.00;102404.16;5281908;28;20082;-78
2022/07/12 06:04:38;;;;;;;14.60;12.37;;;;;;;16.39;100.00;102397.72;5285672;28;20079;-79
2022/07/12 06:07:09;;;;;;;14.93;11.03;;;;;;;16.44;100.00;102393.00;5288173;28;20082;-81
2022/07/12 06:09:41;;;;;;;14.77;13.27;;;;;;;16.62;100.00;102394.63;5280195;28;20020;-81
2022/07/12 06:12:12;;;;;;;15.13;13.53;;;;;;;16.60;100.00;102402.66;5286787;28;20115;-81
2022/07/12 06:14:44;;;;;;;13.20;11.67;;;;;;;16.65;100.00;102400.59;5291451;28;20085;-80
2022/07/12 06:17:15;;;;;;;17.97;13.10;;;;;;;16.73;100.00;102396.63;5293270;28;20036;-81
2022/07/12 06:19:47;;;;;;;15.87;11.30;;;;;;;16.80;100.00;102390.00;5292638;28;20051;-81
2022/07/12 06:22:19;;;;;;;16.23;12.17;;;;;;;16.91;100.00;102405.22;5292284;28;20124;-81
2022/07/12 06:24:50;;;;;;;13.53;11.17;;;;;;;16.86;100.00;102397.56;5292415;28;20032;-81
2022/07/12 06:27:21;;;;;;;12.27;11.10;;;;;;;17.05;100.00;102391.13;5290755;28;20070;-81
2022/07/12 06:29:53;;;;;;;11.23;10.13;;;;;;;17.47;100.00;102407.03;5281432;28;20024;-80
2022/07/12 06:32:24;;;;;;;12.80;11.50;;;;;;;17.46;100.00;102401.84;5288893;28;20024;-80
2022/07/12 06:34:56;;;;;;;13.73;11.03;;;;;;;17.58;100.00;102397.53;5281022;28;20035;-81
2022/07/12 06:37:28;;;;;;;15.73;10.43;;;;;;;17.68;100.00;102400.47;5289294;28;20043;-82
2022/07/12 06:39:59;;;;;;;17.43;12.23;;;;;;;17.78;100.00;102393.59;5292684;28;20039;-81
2022/07/12 06:42:30;;;;;;;16.00;11.40;;;;;;;17.92;100.00;102410.38;5293286;28;20039;-78
2022/07/12 06:45:03;;;;;;;16.43;12.47;;;;;;;17.99;100.00;102411.66;5293838;28;20036;-81
2022/07/12 06:47:34;;;;;;;13.30;11.93;;;;;;;18.06;100.00;102405.00;5293574;28;20047;-82
2022/07/12 06:50:06;;;;;;;13.80;10.80;;;;;;;18.29;100.00;102405.28;5281409;28;20035;-81
2022/07/12 06:52:37;;;;;;;15.33;10.87;;;;;;;18.33;100.00;102405.91;5280039;28;20074;-81
2022/07/12 06:55:09;;;;;;;15.67;11.53;;;;;;;18.48;100.00;102412.81;5291276;28;20060;-79
2022/07/12 06:57:40;;;;;;;14.93;11.00;;;;;;;18.61;100.00;102412.81;5287118;28;20553;-79
2022/07/12 07:00:11;;;;;;;13.20;11.83;;;;;;;18.79;100.00;102409.84;5292794;28;20046;-85
2022/07/12 07:02:42;;;;;;;14.90;11.57;;;;;;;18.79;100.00;102409.84;5290300;28;20427;-84
2022/07/12 07:05:15;;;;;;;20.53;11.70;;;;;;;19.37;100.00;102402.28;5290937;28;20094;-83
2022/07/12 07:07:46;;;;;;;13.33;10.57;;;;;;;19.39;100.00;102401.19;5291508;28;20032;-81
2022/07/12 07:10:18;;;;;;;13.00;8.80;;;;;;;19.62;96.07;102395.19;5292472;28;20035;-79
2022/07/12 07:12:49;;;;;;;11.43;8.60;;;;;;;19.78;98.10;102401.03;5292989;28;20032;-80
2022/07/12 07:15:20;;;;;;;11.27;8.83;;;;;;;20.07;93.84;102403.31;5292326;28;20024;-79
2022/07/12 07:17:52;;;;;;;11.00;8.60;;;;;;;20.33;91.51;102393.47;5292906;28;20471;-78
2022/07/12 07:20:23;;;;;;;9.10;7.63;;;;;;;20.95;89.36;102404.63;5292459;28;20051;-80
2022/07/12 07:22:54;;;;;;;15.45;8.73;;;;;;;20.90;84.97;102397.00;5291818;28;20020;-80
2022/07/12 07:25:25;;;;;;;8.40;7.25;;;;;;;21.17;83.41;102402.06;5290998;28;20075;-83
2022/07/12 07:27:57;;;;;;;12.80;7.20;;;;;;;21.64;80.33;102399.97;5291862;28;20039;-83
2022/07/12 07:33:19;;;;;;;10.73;6.72;;;;;;;22.27;74.54;102410.84;5292728;28;20040;-83
2022/07/12 07:35:52;;;;;;;9.40;7.22;;;;;;;22.74;70.63;102412.22;5291903;28;20024;-83
2022/07/12 07:38:23;;;;;;;10.88;7.45;;;;;;;22.91;70.55;102408.03;5291709;28;20056;-83
2022/07/12 07:40:54;;;;;;;9.07;5.90;;;;;;;23.40;70.57;102399.28;5292322;28;20730;-82
2022/07/12 07:43:26;;;;;;;6.20;5.47;;;;;;;23.58;66.14;102395.91;5276467;28;20036;-83
2022/07/12 07:45:57;;;;;;;8.02;5.68;;;;;;;23.91;64.45;102399.13;5270416;28;20021;-83
2022/07/12 07:48:29;;;;;;;7.88;4.78;;;;;;;23.80;64.25;102389.44;5270850;28;20020;-83
2022/07/12 07:51:00;;;;;;;6.00;3.50;;;;;;;23.86;64.97;102401.38;5269460;28;20020;-82
2022/07/12 07:53:31;;;;;;;5.03;2.80;;;;;;;24.16;62.91;102398.66;5271210;28;20025;-83
2022/07/12 07:56:03;;;;;;;7.53;4.03;;;;;;;24.21;62.01;102393.72;5270920;28;20028;-83
2022/07/12 07:58:34;;;;;;;3.95;3.05;;;;;;;24.25;62.13;102394.28;5270592;28;20031;-83
2022/07/12 08:01:05;;;;;;;4.75;2.88;;;;;;;24.57;58.73;102390.38;5269310;28;20017;-83
2022/07/12 08:03:37;;;;;;;5.03;3.25;;;;;;;24.81;58.31;102382.78;5270600;28;20056;-84
2022/07/12 08:06:08;;;;;;;5.90;3.60;;;;;;;24.62;57.70;102401.50;5271469;28;20082;-78
2022/07/12 08:08:39;;;;;;;4.03;3.55;;;;;;;24.85;55.64;102401.09;5281366;28;20464;-79
2022/07/12 08:11:11;;;;;;;12.88;5.55;;;;;;;24.74;56.70;102398.59;5279205;28;20012;-79
2022/07/12 08:13:42;;;;;;;31.80;6.30;;;;;;;24.64;57.57;102388.81;5286861;28;20032;-78
2022/07/12 08:16:13;;;;;;;6.72;4.78;;;;;;;24.58;56.71;102397.41;5287020;28;20032;-81
2022/07/12 08:18:44;;;;;;;236.70;32.97;;;;;;;24.47;57.17;102395.75;5282767;28;20032;-81
2022/07/12 08:21:16;;;;;;;39.00;6.53;;;;;;;24.59;58.77;102391.09;5291307;28;20039;-80
2022/07/12 08:23:47;;;;;;;237.50;43.17;;;;;;;24.61;57.71;102398.97;5291328;28;20032;-80
2022/07/12 08:26:18;;;;;;;15.63;3.90;;;;;;;24.65;57.39;102400.34;5282576;28;20723;-78
2022/07/12 08:28:51;;;;;;;9.50;3.50;;;;;;;24.73;56.44;102394.25;5285577;28;20024;-80
2022/07/12 08:31:22;;;;;;;7.55;3.65;;;;;;;24.87;56.98;102404.44;5270361;28;20024;-74
2022/07/12 08:33:53;;;;;;;7.03;3.47;;;;;;;25.24;56.08;102404.53;5278959;28;20464;-78
2022/07/12 08:36:25;;;;;;;6.53;3.58;;;;;;;25.52;54.24;102411.69;5288529;28;20064;-76
2022/07/12 08:38:56;;;;;;;6.45;2.42;;;;;;;25.46;55.33;102413.13;5290792;28;20042;-75
2022/07/12 08:41:29;;;;;;;4.35;2.50;;;;;;;25.45;54.20;102409.59;5290101;28;20024;-77
2022/07/12 08:44:01;;;;;;;11.32;3.78;;;;;;;25.30;52.30;102405.78;5286787;28;20515;-77
2022/07/12 08:46:33;;;;;;;5.40;3.10;;;;;;;25.41;51.61;102410.91;5279034;28;20039;-77
2022/07/12 08:49:09;;;;;;;5.60;3.00;;;;;;;25.60;50.47;102419.81;5287632;28;20024;-83
2022/07/12 08:51:41;;;;;;;4.03;2.83;;;;;;;25.74;51.07;102421.13;5292094;28;20474;-77
2022/07/12 08:54:12;;;;;;;5.35;2.70;;;;;;;25.69;50.01;102418.06;5288873;28;20024;-74
2022/07/12 08:56:44;;;;;;;4.78;3.17;;;;;;;26.04;50.52;102426.22;5282590;28;21346;-77
2022/07/12 08:59:21;;;;;;;4.53;2.92;;;;;;;26.50;50.15;102431.38;5286655;28;20045;-74
2022/07/12 09:01:54;;;;;;;4.97;2.67;;;;;;;26.71;48.32;102432.81;5289225;28;20036;-79
2022/07/12 09:04:30;;;;;;;3.55;2.72;;;;;;;27.38;46.79;102419.56;5289779;28;20259;-82
2022/07/12 09:07:13;;;;;;;7.97;2.50;;;;;;;28.10;47.83;102426.09;5292392;28;20213;-83
2022/07/12 09:09:44;;;;;;;4.50;3.67;;;;;;;28.67;43.63;102430.69;5294931;28;20032;-83
2022/07/12 09:12:22;;;;;;;5.65;3.22;;;;;;;28.85;43.13;102425.88;5286717;28;20032;-82
2022/07/12 09:14:53;;;;;;;5.68;2.58;;;;;;;29.17;42.20;102420.50;5285838;28;20028;-83
2022/07/12 09:17:25;;;;;;;5.07;3.20;;;;;;;29.39;40.45;102411.75;5289518;28;20038;-79
2022/07/12 09:19:57;;;;;;;6.65;3.03;;;;;;;29.80;40.26;102419.50;5285565;28;20019;-76
2022/07/12 09:22:28;;;;;;;4.10;2.50;;;;;;;30.29;38.81;102419.22;5285045;28;20132;-75
2022/07/12 09:25:16;;;;;;;2.78;2.22;;;;;;;30.68;41.73;102426.13;5292904;28;20032;-77
2022/07/12 09:27:52;;;;;;;3.15;2.35;;;;;;;31.31;38.38;102426.66;5293846;28;20038;-75
2022/07/12 09:30:28;;;;;;;5.80;2.60;;;;;;;31.92;37.54;102413.63;5294864;28;20031;-75
2022/07/12 09:36:07;;;;;;;3.80;2.40;;;;;;;31.19;37.74;102423.63;5294220;28;20443;-74
2022/07/12 09:38:48;;;;;;;6.30;2.42;;;;;;;30.82;36.64;102410.13;5292068;28;20028;-77
2022/07/12 09:41:23;;;;;;;7.13;2.35;;;;;;;31.39;37.07;102410.28;5289494;28;20028;-79
2022/07/12 09:43:55;;;;;;;5.50;1.95;;;;;;;31.19;36.06;102420.91;5293449;28;20035;-78
2022/07/12 09:46:28;;;;;;;4.85;2.60;;;;;;;31.31;36.36;102413.13;5291626;28;20061;-77
2022/07/12 09:48:59;;;;;;;5.23;2.90;;;;;;;31.43;35.88;102409.91;5289257;28;20035;-77
2022/07/12 09:51:33;;;;;;;3.33;2.63;;;;;;;31.49;36.62;102406.41;5284138;28;20028;-78
2022/07/12 09:54:07;;;;;;;3.90;2.33;;;;;;;32.35;34.98;102407.19;5285097;28;20027;-77
2022/07/12 09:56:43;;;;;;;6.03;2.95;;;;;;;31.31;36.30;102413.13;5291350;28;20038;-77
2022/07/12 09:59:18;;;;;;;3.70;2.65;;;;;;;30.89;37.08;102402.94;5269556;28;20178;-77
2022/07/12 10:01:51;;;;;;;2.67;2.03;;;;;;;32.20;34.95;102401.09;5262401;28;20070;-77
2022/07/12 10:04:23;;;;;;;;;;;;;;;33.48;35.88;102407.91;5260775;28;20110;-76
2022/07/12 10:06:54;;;;;;;3.55;2.38;;;;;;;32.64;34.02;102398.16;5262140;28;20378;-77
2022/07/12 10:09:26;;;;;;;7.20;2.85;;;;;;;33.30;33.19;102395.81;5262026;28;20074;-78
2022/07/12 10:11:58;;;;;;;3.22;2.17;;;;;;;33.86;32.62;102401.00;5260399;28;20109;-78
2022/07/12 10:14:30;;;;;;;3.20;2.50;;;;;;;34.24;32.10;102391.28;5267937;28;20036;-78
2022/07/12 10:17:03;;;;;;;3.92;2.17;;;;;;;34.14;31.19;102389.81;5264844;28;20024;-78
2022/07/12 10:19:36;;;;;;;6.10;1.88;;;;;;;34.56;32.09;102390.53;5274983;28;20043;-77
2022/07/12 10:22:20;;;;;;;4.70;1.60;;;;;;;34.82;31.98;102388.72;5268095;28;20066;-78
2022/07/12 10:24:52;;;;;;;4.88;2.00;;;;;;;34.97;29.84;102386.53;5268628;28;20076;-77
2022/07/12 10:27:28;;;;;;;4.53;2.23;;;;;;;35.07;29.78;102375.13;5265989;28;20119;-77
2022/07/12 10:30:14;;;;;;;2.55;2.17;;;;;;;34.52;31.38;102385.53;5273141;28;20924;-77
2022/07/12 10:32:48;;;;;;;6.40;3.75;;;;;;;32.77;32.82;102378.38;5260776;28;20029;-77
2022/07/12 10:35:22;;;;;;;7.00;3.00;;;;;;;33.97;30.97;102386.75;5262803;28;20025;-77
2022/07/12 10:38:11;;;;;;;4.15;1.98;;;;;;;34.83;31.86;102390.38;5261999;28;20596;-76
2022/07/12 10:40:45;;;;;;;2.30;1.70;;;;;;;34.93;30.00;102385.28;5264813;28;20029;-77
2022/07/12 10:46:25;;;;;;;4.00;2.63;;;;;;;33.62;30.57;102376.97;5261923;28;20503;-76
2022/07/12 10:49:25;;;;;;;4.18;2.92;;;;;;;35.24;29.62;102391.78;5259481;28;20028;-78
2022/07/12 10:52:09;;;;;;;4.93;2.22;;;;;;;34.44;31.95;102388.47;5263649;28;20047;-77
2022/07/12 10:55:06;;;;;;;4.65;2.95;;;;;;;34.12;31.88;102374.78;5267533;28;20135;-78
2022/07/12 10:57:45;;;;;;;2.50;1.38;;;;;;;34.52;30.87;102373.81;5269569;28;20040;-77
2022/07/12 11:00:18;;;;;;;3.03;1.88;;;;;;;35.20;28.88;102379.66;5262480;28;20368;-76
2022/07/12 11:02:49;;;;;;;6.15;1.77;;;;;;;35.42;27.91;102381.16;5263000;28;20064;-76
2022/07/12 11:05:27;;;;;;;3.33;2.20;;;;;;;35.40;28.18;102389.53;5263365;28;20143;-77
2022/07/12 11:07:58;;;;;;;2.05;1.58;;;;;;;35.28;28.70;102388.63;5280860;28;20032;-76
2022/07/12 11:10:29;;;;;;;2.80;1.55;;;;;;;34.95;28.13;102388.63;5268175;28;20034;-76
2022/07/12 11:13:01;;;;;;;2.58;1.60;;;;;;;34.35;28.07;102379.72;5266194;28;20024;-77
2022/07/12 11:15:32;;;;;;;5.95;1.55;;;;;;;35.34;27.84;102376.84;5260720;28;20086;-76
2022/07/12 11:18:03;;;;;;;2.50;1.30;;;;;;;34.35;28.84;102374.28;5262649;28;20574;-76
2022/07/12 11:20:35;;;;;;;2.78;1.70;;;;;;;33.75;28.92;102375.31;5273758;28;20029;-76
2022/07/12 11:23:07;;;;;;;4.60;1.67;;;;;;;34.91;27.70;102365.63;5270574;28;20435;-76
2022/07/12 11:25:39;;;;;;;4.47;1.92;;;;;;;33.57;30.60;102368.63;5264133;28;20106;-77
2022/07/12 11:28:11;;;;;;;3.72;2.05;;;;;;;34.64;28.46;102368.50;5264831;28;20058;-77
2022/07/12 11:30:50;;;;;;;2.95;1.40;;;;;;;34.06;30.32;102362.03;5259858;28;20024;-78
2022/07/12 11:33:25;;;;;;;3.33;1.40;;;;;;;34.68;29.57;102368.91;5275289;28;20149;-77
2022/07/12 11:35:56;;;;;;;2.85;1.60;;;;;;;34.65;28.58;102367.44;5258966;28;20040;-77
2022/07/12 11:38:28;;;;;;;4.03;2.15;;;;;;;34.09;29.50;102356.19;5260445;28;20441;-78
2022/07/12 11:41:02;;;;;;;3.87;2.00;;;;;;;33.28;31.24;102354.44;5260377;28;20375;-77
2022/07/12 11:43:35;;;;;;;5.32;2.00;;;;;;;34.34;29.86;102355.47;5260363;28;20028;-77
2022/07/12 11:46:08;;;;;;;4.10;1.60;;;;;;;33.70;30.17;102359.66;5263000;28;20039;-77
2022/07/12 11:48:41;;;;;;;2.95;2.20;;;;;;;34.33;28.94;102357.38;5275608;28;20023;-77
2022/07/12 11:51:13;;;;;;;3.70;1.90;;;;;;;33.56;29.65;102356.94;5265054;28;20132;-77